Flight Track Log - Related Links

Times and Time Zones

All times are in EDT time to prevent confusion due to time zone crossing. See the SWA329 flight status page for this flight to view local times or setup timezone preferences in your user account.

Time Position Orientation Groundspeed Altitude Reporting Facility
EDT Latitude Longitude Course Direction KTS MPH feet Rate Location/Type
Fri 08:22:14 PM 39.1833 -76.7000 270° West 177 204 1,000  Level Potomac TRACON
Fri 08:23:08 PM 39.1833 -76.7667 270° West 205 236 2,800 1,900 Climbing Potomac TRACON
Fri 08:24:14 PM 39.2000 -76.8500 284° West 256 295 4,800 2,231 Climbing Potomac TRACON
Fri 08:25:09 PM 39.2167 -76.9333 284° West 262 302 7,300 2,376 Climbing Potomac TRACON
Fri 08:26:43 PM 39.2103 -77.0944 267° West 282 325 10,700 1,895 Climbing Washington Center
Fri 08:27:41 PM 39.1844 -77.1769 248° West 301 346 12,100 1,866 Climbing Washington Center
Fri 08:28:42 PM 39.0958 -77.2578 215° Southwest 314 361 14,400 2,380 Climbing Washington Center
Fri 08:29:42 PM 39.0092 -77.3333 214° Southwest 347 399 16,900 2,200 Climbing Washington Center
Fri 08:30:42 PM 38.9225 -77.4086 214° Southwest 370 426 18,800 1,686 Climbing Washington Center
Fri 08:31:43 PM 38.8914 -77.5467 254° West 361 415 20,300 1,714 Climbing Washington Center
Fri 08:32:41 PM 38.8828 -77.6850 265° West 375 432 22,200 1,729 Climbing Washington Center
Fri 08:33:41 PM 38.8739 -77.8233 265° West 394 453 23,700 1,388 Climbing Washington Center
Fri 08:34:42 PM 38.8669 -77.9697 267° West 409 471 25,000 1,438 Climbing Washington Center
Fri 08:35:42 PM 38.8578 -78.1161 265° West 414 476 26,600 1,289 Climbing Washington Center
Fri 08:36:43 PM 38.8525 -78.2625 267° West 414 476 27,600 1,261 Climbing Washington Center
Fri 08:37:41 PM 38.8469 -78.4117 267° West 414 476 29,100 1,627 Climbing Washington Center
Fri 08:38:41 PM 38.8247 -78.5547 259° West 419 482 30,800 1,388 Climbing Washington Center
Fri 08:39:42 PM 38.8044 -78.6978 260° West 419 482 31,900 1,073 Climbing Washington Center
Fri 08:40:44 PM 38.7861 -78.8408 261° West 419 482 33,000 1,059 Climbing Washington Center
Fri 08:41:41 PM 38.7678 -78.9811 261° West 413 475 34,000 508 Climbing Washington Center
Fri 08:42:42 PM 38.7469 -79.1214 259° West 407 468 34,000  Level Washington Center
Fri 08:43:43 PM 38.7322 -79.2669 263° West 413 475 34,000  Level Washington Center
Fri 08:44:41 PM 38.7089 -79.4094 258° West 413 475 34,000  Level Washington Center
Fri 08:45:42 PM 38.6919 -79.5522 261° West 413 475 34,000  Level Washington Center
Fri 08:46:42 PM 38.6728 -79.6817 259° West 413 475 34,000  Level Washington Center
Fri 08:47:43 PM 38.6514 -79.8239 259° West 408 470 34,000  Level Washington Center
Fri 08:50:03 PM 38.5819 -80.1428 255° West 407 468 34,000  Level Indianapolis Center
Fri 08:51:05 PM 38.5472 -80.3056 255° West 409 471 34,000  Level Indianapolis Center
Fri 08:52:06 PM 38.5183 -80.4417 255° West 410 472 34,000  Level Indianapolis Center
Fri 08:53:07 PM 38.4900 -80.5739 255° West 411 473 34,000  Level Indianapolis Center
Fri 08:54:09 PM 38.4600 -80.7136 255° West 410 472 34,000  Level Indianapolis Center
Fri 08:55:10 PM 38.4233 -80.8814 254° West 407 468 34,000  Level Indianapolis Center
Fri 08:56:12 PM 38.3928 -81.0206 254° West 406 467 34,000  Level Indianapolis Center
Fri 08:57:13 PM 38.3611 -81.1606 254° West 409 471 34,000  Level Indianapolis Center
Fri 08:58:14 PM 38.3303 -81.3017 254° West 410 472 34,000  Level Indianapolis Center
Fri 08:59:16 PM 38.2986 -81.4417 254° West 409 471 34,000  Level Indianapolis Center
Fri 09:00:17 PM 38.2675 -81.5825 254° West 410 472 34,000  Level Indianapolis Center
Fri 09:01:18 PM 38.2358 -81.7217 254° West 408 470 34,000  Level Indianapolis Center
Fri 09:02:20 PM 38.2033 -81.8614 254° West 410 472 34,000  Level Indianapolis Center
Fri 09:03:21 PM 38.1722 -82.0006 254° West 409 471 34,000  Level Indianapolis Center
Fri 09:04:22 PM 38.1400 -82.1394 254° West 409 471 34,000  Level Indianapolis Center
Fri 09:05:24 PM 38.1042 -82.2992 254° West 409 471 34,000  Level Indianapolis Center
Fri 09:06:25 PM 38.0719 -82.4358 253° West 406 467 34,000  Level Indianapolis Center
Fri 09:07:26 PM 38.0389 -82.5733 253° West 408 470 34,000  Level Indianapolis Center
Fri 09:08:27 PM 38.0072 -82.7106 254° West 407 468 34,000  Level Indianapolis Center
Fri 09:09:29 PM 37.9742 -82.8483 253° West 408 470 34,000  Level Indianapolis Center
Fri 09:10:30 PM 37.9414 -82.9844 253° West 405 466 34,000  Level Indianapolis Center
Fri 09:11:31 PM 37.9081 -83.1214 253° West 406 467 34,000 -393 Level Indianapolis Center
Fri 09:12:32 PM 37.8753 -83.2583 253° West 407 468 33,200 -878 Descending Indianapolis Center
Fri 09:13:34 PM 37.8428 -83.3931 253° West 403 464 32,200 -976 Descending Indianapolis Center
Fri 09:14:35 PM 37.8033 -83.5519 253° West 405 466 31,200 -934 Descending Indianapolis Center
Fri 09:15:36 PM 37.7703 -83.6906 253° West 410 472 30,300 -885 Descending Indianapolis Center
Fri 09:16:37 PM 37.7342 -83.8317 252° West 419 482 29,400 -878 Descending Indianapolis Center
Fri 09:17:39 PM 37.6997 -83.9719 253° West 419 482 28,500 -1,561 Descending Indianapolis Center
Fri 09:18:40 PM 37.6650 -84.1111 253° West 417 480 26,200 -2,508 Descending Indianapolis Center
Fri 09:19:41 PM 37.6269 -84.2436 250° West 406 467 23,400 -2,311 Descending Indianapolis Center
Fri 09:20:42 PM 37.5883 -84.3678 249° West 385 443 21,500 -1,951 Descending Indianapolis Center
Fri 09:21:44 PM 37.5531 -84.4858 249° West 363 418 19,400 -2,390 Descending Indianapolis Center
Fri 09:22:45 PM 37.5711 -84.6200 280° West 337 388 16,600 -2,459 Descending Indianapolis Center
Fri 09:23:46 PM 37.6011 -84.7361 288° West 346 398 14,400 -2,262 Descending Indianapolis Center
Fri 09:24:47 PM 37.6275 -84.8439 287° West 325 374 12,000 -2,213 Descending Indianapolis Center
Fri 09:25:48 PM 37.6531 -84.9519 287° West 323 372 9,900 -1,024 Descending Indianapolis Center
Fri 09:26:50 PM 37.7069 -85.0269 312° West 285 328 9,900  Level Indianapolis Center
Fri 09:27:51 PM 37.7608 -85.1014 312° West 286 329 9,900 -49 Level Indianapolis Center
Fri 09:28:52 PM 37.8164 -85.1803 312° West 297 342 9,800 -738 Descending Indianapolis Center
Fri 09:29:53 PM 37.8708 -85.2531 313° West 290 334 8,400 -1,512 Descending Indianapolis Center
Fri 09:30:55 PM 37.9219 -85.3256 312° West 277 319 6,700 -1,220 Descending Indianapolis Center
Fri 09:31:56 PM 37.9742 -85.3981 312° West 278 320 5,900 -393 Descending Indianapolis Center
Fri 09:32:57 PM 38.0256 -85.4689 313° West 275 316 5,900  Level Indianapolis Center
Fri 09:33:58 PM 38.0747 -85.5400 311° West 270 311 5,900  Level Indianapolis Center
Fri 09:34:59 PM 38.1528 -85.5939 332° Northwest 280 322 5,900 -341 Level Indianapolis Center
Fri 09:36:01 PM 38.2203 -85.6181 344° North 253 291 5,200 -878 Descending Indianapolis Center
Fri 09:37:02 PM 38.2856 -85.6422 344° North 247 284 4,100 -1,033 Descending Indianapolis Center
Fri 09:38:03 PM 38.3164 -85.6922 308° West 232 267 3,100 -829 Descending Indianapolis Center
Fri 09:39:05 PM 38.2919 -85.7467 240° Southwest 195 224 2,400 -537 Descending Indianapolis Center
Fri 09:40:06 PM 38.2475 -85.7511 184° South 176 203 2,000 -393 Descending Indianapolis Center

Login

Don't have an account? Register now (free) for customized features, flight alerts, and more!